LDPL/PUY METAR and TAF weather

Enter ICAO airport designator
Station Type Date Time Source
LDPL METAR 2020/07/13 14:00 UTC NOAA

LDPL 131400Z 10013KT CAVOK 26/07 Q1018 NOSIG


Station Type Date Time Source
LDPL Decoded METAR 2020/07/13 14:00 UTC NOAA

Pula Aerodrome, Croatia (LDPL) 45-54N 013-55E 63M
Jul 13, 2020 - 10:00 AM EDT / 2020.07.13 1400 UTC
Wind: from the E (100 degrees) at 15 MPH (13 KT):0
Visibility: greater than 7 mile(s):0
Temperature: 78 F (26 C)
Dew Point: 44 F (7 C)
Relative Humidity: 29%
Pressure (altimeter): 30.06 in. Hg (1018 hPa)
ob: LDPL 131400Z 10013KT CAVOK 26/07 Q1018 NOSIG
cycle: 14

Station Type Date Time Source
LDPL TAF 2020/07/13 12:27 UTC NOAA

TAF LDPL 131125Z 1312/1412 06015KT CAVOK TX27/1313Z TN18/1402Z
BECMG 1312/1314 06008KT PROB30 1315/1318 30008KT

Example: see airport list